Time;durP1;ratioP1;P1;durP2;ratioP2;P2;SDS_P1;SDS_P2;PMS_P1;PMS_P2;Temp;Humidity;BMP_temperature;BMP_pressure;BME280_temperature;BME280_humidity;BME280_pressure;Samples;Min_cycle;Max_cycle;Signal;HPM_P1;HPM_P2
2024/01/01 00:01:40;;;;;;;11.48;7.00;;;7.50;99.90;;;;;;5032559;28;20738;-64
2024/01/01 00:04:06;;;;;;;8.18;5.40;;;7.50;99.90;;;;;;5033864;28;20237;-64
2024/01/01 00:06:33;;;;;;;10.75;5.43;;;7.50;99.90;;;;;;5033390;28;20206;-64
2024/01/01 00:09:00;;;;;;;7.90;5.35;;;7.50;99.90;;;;;;5033278;28;20202;-64
2024/01/01 00:11:28;;;;;;;8.23;5.50;;;7.50;99.90;;;;;;5032915;28;20208;-64
2024/01/01 00:13:55;;;;;;;7.13;4.10;;;7.40;99.90;;;;;;5039242;28;20524;-63
2024/01/01 00:16:22;;;;;;;9.40;7.43;;;7.40;99.90;;;;;;5042038;28;20210;-62
2024/01/01 00:18:48;;;;;;;11.00;4.28;;;7.40;99.90;;;;;;5038249;28;20312;-63
2024/01/01 00:21:15;;;;;;;8.57;4.75;;;7.40;99.90;;;;;;5033902;28;20368;-64
2024/01/01 00:23:42;;;;;;;12.05;6.05;;;7.40;99.90;;;;;;5032363;28;20680;-63
2024/01/01 00:26:10;;;;;;;6.22;4.80;;;7.40;99.90;;;;;;5032664;28;20230;-61
2024/01/01 00:28:38;;;;;;;6.00;3.65;;;7.40;99.90;;;;;;5034598;28;20240;-64
2024/01/01 00:31:05;;;;;;;5.50;3.90;;;7.40;99.90;;;;;;5036264;28;20212;-64
2024/01/01 00:33:31;;;;;;;7.78;4.20;;;7.50;99.90;;;;;;5036753;28;20209;-63
2024/01/01 00:35:58;;;;;;;5.18;3.80;;;7.40;99.90;;;;;;5036425;28;20202;-63
2024/01/01 00:38:25;;;;;;;8.77;3.85;;;7.40;99.90;;;;;;5036287;28;20226;-64
2024/01/01 00:40:52;;;;;;;5.38;4.35;;;7.40;99.90;;;;;;5036694;28;20206;-63
2024/01/01 00:43:19;;;;;;;4.28;3.33;;;7.40;99.90;;;;;;5037421;28;20211;-63
2024/01/01 00:45:47;;;;;;;8.10;3.80;;;7.40;99.90;;;;;;5036241;28;20218;-62
2024/01/01 00:48:14;;;;;;;4.80;2.55;;;7.40;99.90;;;;;;5035793;28;20222;-63
2024/01/01 00:50:41;;;;;;;5.07;3.17;;;7.40;99.90;;;;;;5036252;28;20312;-63
2024/01/01 00:53:07;;;;;;;3.75;2.40;;;7.40;99.90;;;;;;5036190;28;20202;-63
2024/01/01 00:55:34;;;;;;;4.15;2.70;;;7.40;99.90;;;;;;5036127;28;20213;-62
2024/01/01 00:58:01;;;;;;;3.92;2.72;;;7.40;99.90;;;;;;5043635;28;20244;-62
2024/01/01 01:00:28;;;;;;;6.65;3.65;;;7.50;99.90;;;;;;5045234;28;20206;-62
2024/01/01 01:02:56;;;;;;;4.40;3.53;;;7.50;99.90;;;;;;5036590;28;20213;-62
2024/01/01 01:05:24;;;;;;;7.28;4.03;;;7.60;99.90;;;;;;5035973;28;20206;-62
2024/01/01 01:07:51;;;;;;;9.65;5.97;;;7.60;99.90;;;;;;5035890;28;20222;-62
2024/01/01 01:10:17;;;;;;;6.65;3.35;;;7.60;99.90;;;;;;5036287;28;20610;-61
2024/01/01 01:12:44;;;;;;;7.10;3.33;;;7.60;99.90;;;;;;5036238;28;20260;-62
2024/01/01 01:15:11;;;;;;;6.28;2.90;;;7.60;99.90;;;;;;5036858;28;20206;-62
2024/01/01 01:17:38;;;;;;;3.92;2.95;;;7.60;99.90;;;;;;5035964;28;20234;-62
2024/01/01 01:20:07;;;;;;;6.07;3.60;;;7.60;99.90;;;;;;5035827;28;20213;-63
2024/01/01 01:22:34;;;;;;;9.00;3.85;;;7.60;99.90;;;;;;5036619;28;20202;-63
2024/01/01 01:25:00;;;;;;;5.25;3.58;;;7.50;99.90;;;;;;5035893;28;20202;-62
2024/01/01 01:27:27;;;;;;;3.85;3.20;;;7.50;99.90;;;;;;5035986;28;20218;-62
2024/01/01 01:29:54;;;;;;;6.50;2.80;;;7.50;99.90;;;;;;5035874;28;20198;-62
2024/01/01 01:32:21;;;;;;;8.82;3.70;;;7.40;99.90;;;;;;5035659;28;20203;-63
2024/01/01 01:34:48;;;;;;;7.82;4.95;;;7.40;99.90;;;;;;5035639;28;20215;-63
2024/01/01 01:37:16;;;;;;;10.40;3.97;;;7.40;99.90;;;;;;5035879;28;20218;-62
2024/01/01 01:39:43;;;;;;;5.63;2.75;;;7.40;99.90;;;;;;5035242;28;20228;-63
2024/01/01 01:42:10;;;;;;;4.35;2.97;;;7.50;99.90;;;;;;5035557;28;20228;-63
2024/01/01 01:44:36;;;;;;;4.68;4.00;;;7.50;99.90;;;;;;5035513;28;20217;-63
2024/01/01 01:47:04;;;;;;;9.10;4.20;;;7.60;99.90;;;;;;5035643;28;20222;-62
2024/01/01 01:49:32;;;;;;;9.45;4.28;;;7.60;99.90;;;;;;5035043;28;20255;-63
2024/01/01 01:52:02;;;;;;;5.25;3.53;;;7.70;99.90;;;;;;5035333;28;20217;-63
2024/01/01 01:54:34;;;;;;;5.65;3.92;;;7.70;99.90;;;;;;5035159;28;20605;-63
2024/01/01 01:57:01;;;;;;;5.20;4.13;;;7.70;99.90;;;;;;5035320;28;20594;-63
2024/01/01 01:59:29;;;;;;;4.47;3.10;;;7.70;99.90;;;;;;5035132;28;20226;-63
2024/01/01 02:01:56;;;;;;;6.05;4.00;;;7.70;99.90;;;;;;5034893;28;20209;-63
2024/01/01 02:04:24;;;;;;;7.80;4.32;;;7.70;99.90;;;;;;5035786;28;20198;-63
2024/01/01 02:06:51;;;;;;;12.60;5.93;;;7.70;99.90;;;;;;5035721;28;20209;-64
2024/01/01 02:09:18;;;;;;;8.43;4.90;;;7.70;99.90;;;;;;5035878;28;20210;-62
2024/01/01 02:11:46;;;;;;;7.25;3.97;;;7.70;99.90;;;;;;5037855;28;20210;-62
2024/01/01 02:14:15;;;;;;;7.65;4.55;;;7.70;99.90;;;;;;5038908;28;20198;-62
2024/01/01 02:16:44;;;;;;;4.40;3.30;;;7.80;99.90;;;;;;5038031;28;20209;-63
2024/01/01 02:19:18;;;;;;;5.45;3.53;;;7.80;99.90;;;;;;5038360;28;20704;-63
2024/01/01 02:21:45;;;;;;;4.65;2.88;;;7.80;99.90;;;;;;5037163;28;20192;-62
2024/01/01 02:24:15;;;;;;;7.47;3.20;;;7.80;99.90;;;;;;5036459;28;20216;-61
2024/01/01 02:26:42;;;;;;;4.60;3.00;;;7.90;99.90;;;;;;5035375;28;20229;-61
2024/01/01 02:29:09;;;;;;;4.18;2.75;;;7.90;99.90;;;;;;5042616;28;20202;-63
2024/01/01 02:31:36;;;;;;;5.32;3.03;;;7.90;99.90;;;;;;5045171;28;20199;-64
2024/01/01 02:34:03;;;;;;;5.60;3.20;;;7.90;99.90;;;;;;5038081;28;20213;-63
2024/01/01 02:36:31;;;;;;;6.68;3.53;;;7.80;99.90;;;;;;5036337;28;20199;-63
2024/01/01 02:38:57;;;;;;;7.60;3.22;;;7.80;99.90;;;;;;5035419;28;20710;-63
2024/01/01 02:41:25;;;;;;;6.28;3.28;;;7.80;99.90;;;;;;5035316;28;20206;-62
2024/01/01 02:43:52;;;;;;;5.28;3.40;;;7.80;99.90;;;;;;5035330;28;20198;-62
2024/01/01 02:46:19;;;;;;;7.72;3.15;;;7.80;99.90;;;;;;5035159;28;20686;-62
2024/01/01 02:48:46;;;;;;;6.90;3.33;;;7.80;99.90;;;;;;5035050;28;20237;-63
2024/01/01 02:51:13;;;;;;;10.27;3.20;;;7.80;99.90;;;;;;5034134;28;20202;-63
2024/01/01 02:53:39;;;;;;;7.68;3.50;;;7.80;99.90;;;;;;5034736;28;20556;-62
2024/01/01 02:56:06;;;;;;;5.50;3.38;;;7.80;99.90;;;;;;5034388;28;20581;-62
2024/01/01 02:58:36;;;;;;;5.55;4.50;;;7.70;99.90;;;;;;5034254;28;20222;-63
2024/01/01 03:01:03;;;;;;;4.75;3.10;;;7.70;99.90;;;;;;5040691;28;20206;-63
2024/01/01 03:03:30;;;;;;;5.28;3.25;;;7.60;99.90;;;;;;5041378;28;20238;-64
2024/01/01 03:05:56;;;;;;;5.40;3.25;;;7.60;99.90;;;;;;5035013;28;20198;-62
2024/01/01 03:08:23;;;;;;;5.78;3.25;;;7.60;99.90;;;;;;5034659;28;20215;-62
2024/01/01 03:10:50;;;;;;;5.32;3.65;;;7.50;99.90;;;;;;5041118;28;20206;-62
2024/01/01 03:13:17;;;;;;;6.15;3.38;;;7.50;99.90;;;;;;5045232;28;20225;-63
2024/01/01 03:15:45;;;;;;;10.95;3.65;;;7.60;99.90;;;;;;5039916;28;20206;-62
2024/01/01 03:18:12;;;;;;;7.57;4.53;;;7.60;99.90;;;;;;5035276;28;20226;-62
2024/01/01 03:20:39;;;;;;;10.48;3.70;;;7.60;99.90;;;;;;5036187;28;20206;-63
2024/01/01 03:23:06;;;;;;;6.15;3.60;;;7.60;99.90;;;;;;5034887;28;20213;-63
2024/01/01 03:25:33;;;;;;;5.13;3.30;;;7.60;99.90;;;;;;5034159;28;20249;-61
2024/01/01 03:28:00;;;;;;;6.25;3.42;;;7.60;99.90;;;;;;5034301;28;20611;-62
2024/01/01 03:30:26;;;;;;;4.65;3.30;;;7.60;99.90;;;;;;5034907;28;20202;-62
2024/01/01 03:32:55;;;;;;;6.90;3.40;;;7.60;99.90;;;;;;5075157;22;20252;-63
2024/01/01 03:35:21;;;;;;;4.78;3.10;;;7.70;99.90;;;;;;5054332;28;20197;-63
2024/01/01 03:37:48;;;;;;;5.10;3.05;;;7.70;99.90;;;;;;5054252;28;20201;-64
2024/01/01 03:40:15;;;;;;;7.95;3.83;;;7.70;99.90;;;;;;5054531;28;20206;-63
2024/01/01 03:42:42;;;;;;;4.22;3.30;;;7.70;99.90;;;;;;5054367;28;20719;-63
2024/01/01 03:45:09;;;;;;;6.47;3.00;;;7.80;99.90;;;;;;5054516;28;20620;-63
2024/01/01 03:47:36;;;;;;;5.93;3.22;;;7.80;99.90;;;;;;5054385;28;20205;-63
2024/01/01 03:50:06;;;;;;;4.25;3.25;;;7.80;99.90;;;;;;5054416;28;20590;-64
2024/01/01 03:52:33;;;;;;;6.60;3.50;;;7.80;99.90;;;;;;5053823;28;20242;-64
2024/01/01 03:54:59;;;;;;;6.75;4.00;;;7.80;99.90;;;;;;5053140;28;20208;-64
2024/01/01 03:57:27;;;;;;;6.63;3.20;;;7.80;99.90;;;;;;5052995;28;20224;-64
2024/01/01 03:59:54;;;;;;;5.05;3.35;;;7.80;99.90;;;;;;5052886;28;20399;-64
2024/01/01 04:02:20;;;;;;;5.55;2.88;;;7.80;99.90;;;;;;5052662;28;20222;-64
2024/01/01 04:04:49;;;;;;;6.03;3.47;;;7.80;99.90;;;;;;5052836;28;20201;-64
2024/01/01 04:07:18;;;;;;;3.88;3.10;;;7.80;99.90;;;;;;5053073;28;20198;-64
2024/01/01 04:12:52;;;;;;;7.38;3.53;;;7.70;99.90;;;;;;5091020;27;20545;-64
2024/01/01 04:15:19;;;;;;;5.50;3.28;;;7.60;99.90;;;;;;5090789;28;20196;-63
2024/01/01 04:17:45;;;;;;;5.35;3.10;;;7.60;99.90;;;;;;5091598;28;20230;-63
2024/01/01 04:20:12;;;;;;;7.03;3.60;;;7.60;99.90;;;;;;5097205;28;20206;-64
2024/01/01 04:22:40;;;;;;;5.22;3.30;;;7.60;99.90;;;;;;5098747;28;20220;-63
2024/01/01 04:25:07;;;;;;;7.13;3.30;;;7.70;99.90;;;;;;5092013;28;20204;-64
2024/01/01 04:27:35;;;;;;;4.65;2.92;;;7.70;99.90;;;;;;5091526;28;20196;-64
2024/01/01 04:30:04;;;;;;;6.65;2.88;;;7.80;99.90;;;;;;5091422;28;20200;-64
2024/01/01 04:32:31;;;;;;;3.75;3.00;;;7.80;99.90;;;;;;5091162;28;20228;-65
2024/01/01 04:34:58;;;;;;;5.95;3.08;;;7.80;99.90;;;;;;5091301;28;20207;-65
2024/01/01 04:37:24;;;;;;;8.45;3.50;;;7.80;99.90;;;;;;5090713;28;20223;-65
2024/01/01 04:39:51;;;;;;;9.02;3.60;;;7.80;99.90;;;;;;5091335;28;20207;-62
2024/01/01 04:42:18;;;;;;;7.05;3.22;;;7.80;99.90;;;;;;5090613;28;20213;-64
2024/01/01 04:44:45;;;;;;;7.70;3.45;;;7.80;99.90;;;;;;5090604;28;20196;-65
2024/01/01 04:47:13;;;;;;;5.72;3.25;;;7.80;99.90;;;;;;5091006;28;20197;-68
2024/01/01 04:49:42;;;;;;;5.90;3.35;;;7.90;99.90;;;;;;5090676;28;20621;-64
2024/01/01 04:52:08;;;;;;;4.85;3.70;;;7.80;99.90;;;;;;5090226;28;20242;-62
2024/01/01 04:54:35;;;;;;;5.28;3.13;;;7.80;99.90;;;;;;5090019;28;20196;-64
2024/01/01 04:57:02;;;;;;;5.13;2.85;;;7.80;99.90;;;;;;5090205;28;20200;-63
2024/01/01 04:59:28;;;;;;;6.28;3.05;;;7.80;99.90;;;;;;5090733;28;20200;-64
2024/01/01 05:01:55;;;;;;;4.13;3.03;;;7.90;99.90;;;;;;5089937;28;20235;-64
2024/01/01 05:04:23;;;;;;;3.80;3.05;;;7.90;99.90;;;;;;5090253;28;20270;-62
2024/01/01 05:06:50;;;;;;;6.70;3.22;;;7.90;99.90;;;;;;5091227;28;20196;-64
2024/01/01 05:09:17;;;;;;;7.30;2.53;;;7.90;99.90;;;;;;5094987;28;20210;-63
2024/01/01 05:11:44;;;;;;;3.70;2.78;;;7.90;99.90;;;;;;5089566;28;20243;-64
2024/01/01 05:14:10;;;;;;;7.95;3.20;;;7.90;99.90;;;;;;5089761;28;20196;-63
2024/01/01 05:16:39;;;;;;;5.93;3.08;;;7.90;99.90;;;;;;5090029;28;20223;-63
2024/01/01 05:19:05;;;;;;;3.60;2.65;;;7.90;99.90;;;;;;5090243;28;20596;-64
2024/01/01 05:21:34;;;;;;;5.75;3.10;;;7.90;99.90;;;;;;5089423;28;20212;-64
2024/01/01 05:24:00;;;;;;;5.05;2.70;;;7.90;99.90;;;;;;5077843;28;20212;-64
2024/01/01 05:26:27;;;;;;;8.30;2.67;;;8.00;99.90;;;;;;5077286;28;20212;-63
2024/01/01 05:28:54;;;;;;;7.25;3.13;;;8.00;99.90;;;;;;5076352;28;20205;-65
2024/01/01 05:31:21;;;;;;;6.45;2.90;;;8.00;99.90;;;;;;5076635;28;20225;-64
2024/01/01 05:33:48;;;;;;;4.93;3.00;;;8.00;99.90;;;;;;5076172;28;20205;-64
2024/01/01 05:36:15;;;;;;;3.88;2.60;;;8.00;99.90;;;;;;5075917;28;20197;-64
2024/01/01 05:38:43;;;;;;;3.90;2.70;;;8.00;99.90;;;;;;5075907;28;20204;-63
2024/01/01 05:41:11;;;;;;;5.25;2.75;;;8.00;99.90;;;;;;5075935;28;20217;-64
2024/01/01 05:43:38;;;;;;;5.65;2.72;;;8.00;99.90;;;;;;5075296;28;20197;-62
2024/01/01 05:46:06;;;;;;;3.80;2.10;;;8.00;99.90;;;;;;5075705;28;20205;-65
2024/01/01 05:48:32;;;;;;;5.55;2.60;;;8.00;99.90;;;;;;5075599;28;20350;-65
2024/01/01 05:50:59;;;;;;;5.38;2.30;;;8.10;99.90;;;;;;5075737;28;20200;-63
2024/01/01 05:53:26;;;;;;;8.98;2.50;;;8.00;99.90;;;;;;5075703;28;20211;-63
2024/01/01 05:55:54;;;;;;;4.78;2.70;;;8.00;99.90;;;;;;5075695;28;20201;-64
2024/01/01 05:58:21;;;;;;;5.80;2.40;;;7.90;99.90;;;;;;5075327;28;20204;-64
2024/01/01 06:00:48;;;;;;;3.40;2.35;;;7.70;99.90;;;;;;5075425;28;20201;-64
2024/01/01 06:03:14;;;;;;;5.72;2.38;;;7.50;99.90;;;;;;5075869;28;20196;-64
2024/01/01 06:05:41;;;;;;;6.20;2.35;;;7.30;99.90;;;;;;5075820;28;20201;-63
2024/01/01 06:08:08;;;;;;;4.75;2.45;;;7.20;99.90;;;;;;5075481;28;20207;-64
2024/01/01 06:10:35;;;;;;;5.63;2.50;;;7.10;99.90;;;;;;5075268;28;20205;-64
2024/01/01 06:13:04;;;;;;;4.28;2.15;;;7.10;99.90;;;;;;5076111;28;20224;-64
2024/01/01 06:15:31;;;;;;;5.22;2.97;;;7.10;99.90;;;;;;5075566;28;20200;-64
2024/01/01 06:17:58;;;;;;;5.00;2.75;;;7.10;99.90;;;;;;5075406;28;20205;-64
2024/01/01 06:20:24;;;;;;;4.53;3.13;;;7.10;99.90;;;;;;5075413;28;20201;-63
2024/01/01 06:22:51;;;;;;;7.88;3.15;;;7.10;99.90;;;;;;5076740;28;20213;-64
2024/01/01 06:25:18;;;;;;;4.80;2.53;;;7.10;99.90;;;;;;5075581;28;20242;-63
2024/01/01 06:27:45;;;;;;;5.60;2.83;;;7.20;99.90;;;;;;5075236;28;20201;-64
2024/01/01 06:30:13;;;;;;;6.07;2.47;;;7.20;99.90;;;;;;5075633;28;20197;-64
2024/01/01 06:32:40;;;;;;;5.15;3.10;;;7.20;99.90;;;;;;5075136;28;20225;-64
2024/01/01 06:35:07;;;;;;;7.25;2.40;;;7.20;99.90;;;;;;5074590;28;20203;-63
2024/01/01 06:37:34;;;;;;;3.30;2.45;;;7.20;99.90;;;;;;5075146;28;20231;-64
2024/01/01 06:40:01;;;;;;;3.97;2.50;;;7.20;99.90;;;;;;5075513;28;20212;-64
2024/01/01 06:42:27;;;;;;;7.10;3.25;;;7.20;99.90;;;;;;5075620;28;20227;-63
2024/01/01 06:44:58;;;;;;;3.13;2.63;;;7.20;99.90;;;;;;5074836;28;20197;-64
2024/01/01 06:47:26;;;;;;;5.07;2.53;;;7.20;99.90;;;;;;5074376;28;20200;-63
2024/01/01 06:49:53;;;;;;;7.28;2.63;;;7.20;99.90;;;;;;5074537;28;20211;-63
2024/01/01 06:52:19;;;;;;;3.90;2.45;;;7.20;99.90;;;;;;5074044;28;20221;-64
2024/01/01 06:54:46;;;;;;;4.30;2.67;;;7.20;99.90;;;;;;5074221;28;20201;-64
2024/01/01 06:57:13;;;;;;;5.60;2.85;;;7.20;99.90;;;;;;5074971;28;20201;-63
2024/01/01 06:59:40;;;;;;;5.00;3.40;;;7.30;99.90;;;;;;5073937;28;20603;-63
2024/01/01 07:02:06;;;;;;;3.38;2.55;;;7.20;99.90;;;;;;5074321;28;20217;-63
2024/01/01 07:04:35;;;;;;;6.55;2.55;;;7.30;99.90;;;;;;5074000;28;20642;-65
2024/01/01 07:07:03;;;;;;;5.00;2.65;;;7.30;99.90;;;;;;5074728;28;20207;-63
2024/01/01 07:09:29;;;;;;;6.07;2.38;;;7.30;99.90;;;;;;5074592;28;20277;-63
2024/01/01 07:11:57;;;;;;;9.43;2.40;;;7.20;99.90;;;;;;5073258;28;20322;-64
2024/01/01 07:14:24;;;;;;;7.82;2.60;;;7.20;99.90;;;;;;5073553;28;20209;-63
2024/01/01 07:16:53;;;;;;;5.15;2.25;;;7.20;99.90;;;;;;5073853;28;20201;-63
2024/01/01 07:19:19;;;;;;;4.25;2.08;;;7.20;99.90;;;;;;5073923;28;20197;-63
2024/01/01 07:21:48;;;;;;;4.60;2.75;;;7.20;99.90;;;;;;5074092;28;20580;-64
2024/01/01 07:24:14;;;;;;;5.78;2.70;;;7.20;99.90;;;;;;5073467;28;20197;-64
2024/01/01 07:26:41;;;;;;;6.22;2.60;;;7.20;99.90;;;;;;5073559;28;20291;-64
2024/01/01 07:29:08;;;;;;;6.22;3.25;;;7.20;99.90;;;;;;5073028;28;20211;-63
2024/01/01 07:31:35;;;;;;;5.20;2.55;;;7.20;99.90;;;;;;5073283;28;20221;-64
2024/01/01 07:34:02;;;;;;;3.13;1.77;;;7.20;99.90;;;;;;5073031;28;20250;-64
2024/01/01 07:36:30;;;;;;;5.22;2.30;;;7.20;99.90;;;;;;5072989;28;20735;-65
2024/01/01 07:38:58;;;;;;;6.60;2.28;;;7.20;99.90;;;;;;5072947;28;20205;-63
2024/01/01 07:41:25;;;;;;;5.10;2.50;;;7.20;99.90;;;;;;5073295;28;20221;-64
2024/01/01 07:43:51;;;;;;;6.32;2.25;;;7.20;99.90;;;;;;5073355;28;20200;-63
2024/01/01 07:46:18;;;;;;;6.45;2.13;;;7.20;99.90;;;;;;5072627;28;20203;-63
2024/01/01 07:48:45;;;;;;;4.15;2.03;;;7.20;99.90;;;;;;5073056;28;20196;-63
2024/01/01 07:51:12;;;;;;;5.28;2.22;;;7.20;99.90;;;;;;5073552;28;20237;-63
2024/01/01 07:53:38;;;;;;;4.15;2.20;;;7.20;99.90;;;;;;5072934;28;20653;-62
2024/01/01 07:56:07;;;;;;;4.05;1.60;;;7.20;99.90;;;;;;5073054;28;20584;-64
2024/01/01 07:58:34;;;;;;;4.22;2.28;;;7.20;99.90;;;;;;5074295;28;20197;-63
2024/01/01 08:01:01;;;;;;;6.18;2.28;;;7.20;99.90;;;;;;5078040;28;20201;-62
2024/01/01 08:03:28;;;;;;;8.68;2.70;;;7.20;99.90;;;;;;5078714;28;20208;-63
2024/01/01 08:05:55;;;;;;;4.28;1.95;;;7.20;99.90;;;;;;5074283;28;20208;-63
2024/01/01 08:08:21;;;;;;;4.68;1.98;;;7.20;99.90;;;;;;5073761;28;20201;-63
2024/01/01 08:10:49;;;;;;;5.38;2.10;;;7.20;99.90;;;;;;5073908;28;20299;-64
2024/01/01 08:13:17;;;;;;;2.70;1.88;;;7.20;99.90;;;;;;5073558;28;20691;-63
2024/01/01 08:15:43;;;;;;;5.50;2.10;;;7.20;99.90;;;;;;5073142;28;20318;-63
2024/01/01 08:18:10;;;;;;;4.60;2.13;;;7.20;99.90;;;;;;5073082;28;20226;-63
2024/01/01 08:20:37;;;;;;;5.47;2.40;;;7.20;99.90;;;;;;5075061;28;20200;-64
2024/01/01 08:23:04;;;;;;;4.20;2.10;;;7.20;99.90;;;;;;5073204;28;20221;-64
2024/01/01 08:25:31;;;;;;;5.05;2.05;;;7.20;99.90;;;;;;5072885;28;20197;-64
2024/01/01 08:27:58;;;;;;;4.70;2.40;;;7.30;99.90;;;;;;5073116;28;20204;-63
2024/01/01 08:30:27;;;;;;;5.10;2.33;;;7.30;99.90;;;;;;5072966;28;20205;-63
2024/01/01 08:32:53;;;;;;;4.55;1.88;;;7.30;99.90;;;;;;5072802;28;20589;-64
2024/01/01 08:35:20;;;;;;;3.75;1.63;;;7.30;99.90;;;;;;5073047;28;20201;-64
2024/01/01 08:37:48;;;;;;;5.20;2.30;;;7.30;99.90;;;;;;5073072;28;20201;-63
2024/01/01 08:40:15;;;;;;;3.35;1.85;;;7.30;99.90;;;;;;5072814;28;20204;-63
2024/01/01 08:42:42;;;;;;;9.52;3.00;;;7.30;99.90;;;;;;5072882;28;20217;-64
2024/01/01 08:45:09;;;;;;;7.20;2.25;;;7.30;99.90;;;;;;5072932;28;20213;-64
2024/01/01 08:47:37;;;;;;;5.03;2.13;;;7.30;99.90;;;;;;5072728;28;20252;-63
2024/01/01 08:50:04;;;;;;;6.85;2.70;;;7.30;99.90;;;;;;5073003;28;20197;-63
2024/01/01 08:52:31;;;;;;;4.28;1.85;;;7.30;99.90;;;;;;5072937;28;20220;-64
2024/01/01 08:54:58;;;;;;;6.97;2.05;;;7.30;99.90;;;;;;5072809;28;20585;-63
2024/01/01 08:57:26;;;;;;;9.30;2.13;;;7.30;99.90;;;;;;5074080;28;20206;-63
2024/01/01 08:59:53;;;;;;;7.97;2.35;;;7.30;99.90;;;;;;5076668;28;20300;-63
2024/01/01 09:02:20;;;;;;;8.73;2.40;;;7.30;99.90;;;;;;5076842;28;20227;-63
2024/01/01 09:04:48;;;;;;;7.88;1.92;;;7.30;99.90;;;;;;5076935;28;20215;-64
2024/01/01 09:07:15;;;;;;;4.15;1.88;;;7.30;99.90;;;;;;5076332;28;20216;-63
2024/01/01 09:09:41;;;;;;;5.75;2.17;;;7.30;99.90;;;;;;5077290;28;20198;-64
2024/01/01 09:12:09;;;;;;;6.28;2.20;;;7.30;99.90;;;;;;5076544;28;20228;-63
2024/01/01 09:14:38;;;;;;;6.50;2.10;;;7.30;99.90;;;;;;5077155;28;20201;-64
2024/01/01 09:17:07;;;;;;;6.55;2.10;;;7.30;99.90;;;;;;5076834;28;20197;-64
2024/01/01 09:19:34;;;;;;;6.85;2.30;;;7.30;99.90;;;;;;5076783;28;20250;-65
2024/01/01 09:22:02;;;;;;;4.50;1.80;;;7.30;99.90;;;;;;5076963;28;20225;-63
2024/01/01 09:24:29;;;;;;;6.28;1.70;;;7.40;99.90;;;;;;5076442;28;20201;-63
2024/01/01 09:26:55;;;;;;;2.80;1.75;;;7.40;99.90;;;;;;5076977;28;20203;-64
2024/01/01 09:29:23;;;;;;;7.10;2.00;;;7.40;99.90;;;;;;5076925;28;20201;-65
2024/01/01 09:31:50;;;;;;;4.35;1.80;;;7.40;99.90;;;;;;5076674;28;20228;-63
2024/01/01 09:34:16;;;;;;;5.28;1.98;;;7.40;99.90;;;;;;5076701;28;20221;-63
2024/01/01 09:36:43;;;;;;;5.53;2.33;;;7.40;99.90;;;;;;5076144;28;20201;-64
2024/01/01 09:39:11;;;;;;;3.58;1.80;;;7.40;99.90;;;;;;5076051;28;20201;-63
2024/01/01 09:41:38;;;;;;;5.03;1.77;;;7.40;99.90;;;;;;5076065;28;20221;-63
2024/01/01 09:44:05;;;;;;;5.32;1.63;;;7.40;99.90;;;;;;5077215;28;20612;-64
2024/01/01 09:46:33;;;;;;;4.07;1.73;;;7.50;99.90;;;;;;5076081;28;20216;-63
2024/01/01 09:49:00;;;;;;;5.40;2.30;;;7.50;99.90;;;;;;5076276;28;20201;-63
2024/01/01 09:51:27;;;;;;;7.32;2.10;;;7.40;99.90;;;;;;5076292;28;20231;-64
2024/01/01 09:53:54;;;;;;;10.95;2.55;;;7.40;99.90;;;;;;5076507;28;20216;-64
2024/01/01 09:56:22;;;;;;;5.93;1.85;;;7.30;99.90;;;;;;5076691;28;20197;-65
2024/01/01 09:58:49;;;;;;;3.33;1.38;;;7.30;99.90;;;;;;5076281;28;20670;-64
2024/01/01 10:01:16;;;;;;;7.18;2.72;;;7.20;99.90;;;;;;5074904;28;20711;-64
2024/01/01 10:03:43;;;;;;;5.15;1.60;;;7.20;99.90;;;;;;5075262;28;20228;-63
2024/01/01 10:06:11;;;;;;;4.20;1.77;;;7.20;99.90;;;;;;5077211;28;20224;-63
2024/01/01 10:08:38;;;;;;;5.72;2.03;;;7.20;99.90;;;;;;5075353;28;20197;-62
2024/01/01 10:11:17;;;;;;;8.02;1.90;;;7.20;99.90;;;;;;5074868;28;20584;-64
2024/01/01 10:13:45;;;;;;;6.13;1.90;;;7.20;99.90;;;;;;5075005;28;20244;-63
2024/01/01 10:16:24;;;;;;;3.78;1.92;;;7.20;99.90;;;;;;5075204;28;20197;-64
2024/01/01 10:18:54;;;;;;;11.73;2.38;;;7.20;99.90;;;;;;5076226;28;20195;-66
2024/01/01 10:21:28;;;;;;;4.10;1.80;;;7.20;99.90;;;;;;5075668;28;20232;-64
2024/01/01 10:23:55;;;;;;;5.07;1.73;;;7.30;99.90;;;;;;5076232;28;20181;-64
2024/01/01 10:26:22;;;;;;;5.22;2.25;;;7.30;99.90;;;;;;5076027;28;20204;-64
2024/01/01 10:28:50;;;;;;;5.10;1.73;;;7.40;99.90;;;;;;5075762;28;20197;-64
2024/01/01 10:31:17;;;;;;;3.53;1.35;;;7.40;99.90;;;;;;5075293;28;20239;-64
2024/01/01 10:33:45;;;;;;;4.30;1.92;;;7.40;99.90;;;;;;5075212;28;20212;-63
2024/01/01 10:36:16;;;;;;;3.75;2.10;;;7.50;99.90;;;;;;5075592;28;20284;-64
2024/01/01 10:38:45;;;;;;;3.85;1.67;;;7.50;99.90;;;;;;5076685;28;20251;-64
2024/01/01 10:41:12;;;;;;;6.13;2.25;;;7.50;99.90;;;;;;5075540;28;20221;-64
2024/01/01 10:43:43;;;;;;;4.68;2.40;;;7.50;99.90;;;;;;5076092;28;20204;-63
2024/01/01 10:46:13;;;;;;;3.55;2.05;;;7.50;99.90;;;;;;5077926;28;20555;-64
2024/01/01 10:48:42;;;;;;;6.68;2.60;;;7.50;99.90;;;;;;5077487;28;20189;-64
2024/01/01 10:51:41;;;;;;;2.58;1.83;;;7.50;99.90;;;;;;5077486;28;20220;-64
2024/01/01 10:54:42;;;;;;;4.63;2.15;;;7.50;99.90;;;;;;5072407;28;20220;-63
2024/01/01 10:57:23;;;;;;;6.10;2.47;;;7.50;99.90;;;;;;5075302;28;20210;-65
2024/01/01 10:59:56;;;;;;;6.60;2.25;;;7.50;99.90;;;;;;5075523;28;20185;-63
2024/01/01 11:02:26;;;;;;;4.20;1.80;;;7.50;99.90;;;;;;5074930;28;20733;-64
2024/01/01 11:05:06;;;;;;;5.40;1.95;;;7.50;99.90;;;;;;5075208;28;20243;-64
2024/01/01 11:07:57;;;;;;;3.47;1.52;;;7.50;99.90;;;;;;5074737;28;20189;-64
2024/01/01 11:10:38;;;;;;;6.97;1.98;;;7.50;99.90;;;;;;5074653;28;20192;-64
2024/01/01 11:13:05;;;;;;;3.85;1.85;;;7.60;99.90;;;;;;5074695;28;20227;-64
2024/01/01 11:15:40;;;;;;;6.78;1.70;;;7.60;99.90;;;;;;5074279;28;20554;-64
2024/01/01 11:18:16;;;;;;;5.35;1.63;;;7.60;99.90;;;;;;5074404;28;20208;-64
2024/01/01 11:20:48;;;;;;;4.00;1.77;;;7.60;99.90;;;;;;5073391;28;20201;-64
2024/01/01 11:23:39;;;;;;;3.80;1.95;;;7.60;99.90;;;;;;5073897;28;20200;-72
2024/01/01 11:26:27;;;;;;;1.90;1.50;;;7.60;99.90;;;;;;5078999;28;20192;-64
2024/01/01 11:28:55;;;;;;;4.05;1.80;;;7.60;99.90;;;;;;5078563;28;20207;-64
2024/01/01 11:31:22;;;;;;;2.95;1.45;;;7.60;99.90;;;;;;5076728;28;20300;-65
2024/01/01 11:34:04;;;;;;;3.35;1.83;;;7.70;99.90;;;;;;5081390;28;20221;-65
2024/01/01 11:36:31;;;;;;;5.13;2.13;;;7.70;99.90;;;;;;5079617;28;20209;-65
2024/01/01 11:38:58;;;;;;;5.28;1.90;;;7.70;99.90;;;;;;5079565;28;20205;-65
2024/01/01 11:41:26;;;;;;;4.85;1.95;;;7.80;99.90;;;;;;5079312;28;20221;-64
2024/01/01 11:43:54;;;;;;;8.25;2.20;;;7.70;99.90;;;;;;5079433;28;20213;-64
2024/01/01 11:46:25;;;;;;;7.30;1.92;;;7.80;99.90;;;;;;5082024;28;20203;-64
2024/01/01 11:49:00;;;;;;;3.80;2.00;;;7.80;99.90;;;;;;5081512;28;20732;-64
2024/01/01 11:51:30;;;;;;;3.70;1.55;;;7.80;99.90;;;;;;5079432;28;20224;-64
2024/01/01 11:54:07;;;;;;;5.88;1.80;;;7.80;99.90;;;;;;5078229;28;20227;-63
2024/01/01 11:56:35;;;;;;;4.20;1.80;;;7.80;99.90;;;;;;5079090;28;20200;-64
2024/01/01 11:59:03;;;;;;;4.28;1.63;;;7.80;99.90;;;;;;5078890;28;20197;-64
2024/01/01 12:01:30;;;;;;;5.53;2.20;;;7.80;99.90;;;;;;5079431;28;20225;-63
2024/01/01 12:04:02;;;;;;;7.30;2.65;;;7.80;99.90;;;;;;5076921;28;20200;-64
2024/01/01 12:06:29;;;;;;;3.60;1.92;;;7.90;99.90;;;;;;5074443;28;20189;-64
2024/01/01 12:09:06;;;;;;;2.42;1.70;;;7.90;99.90;;;;;;5076447;28;20250;-65
2024/01/01 12:11:34;;;;;;;3.80;1.95;;;7.90;99.90;;;;;;5074202;28;20294;-64
2024/01/01 12:14:00;;;;;;;8.60;2.00;;;7.90;99.90;;;;;;5074362;28;20231;-64
2024/01/01 12:16:29;;;;;;;4.38;2.17;;;7.90;99.90;;;;;;5074112;28;20291;-65
2024/01/01 12:18:57;;;;;;;9.80;2.33;;;7.90;99.90;;;;;;5073627;28;20582;-64
2024/01/01 12:21:26;;;;;;;4.93;2.30;;;8.00;99.90;;;;;;5073727;28;20274;-65
2024/01/01 12:24:04;;;;;;;4.18;2.00;;;8.10;99.90;;;;;;5074128;28;20201;-64
2024/01/01 12:26:33;;;;;;;6.93;2.10;;;8.10;99.90;;;;;;5074919;28;20200;-65
2024/01/01 12:29:09;;;;;;;5.57;2.40;;;8.20;99.90;;;;;;5077127;28;20209;-64
2024/01/01 12:31:36;;;;;;;4.80;1.67;;;8.20;99.90;;;;;;5076189;28;20247;-66
2024/01/01 12:34:03;;;;;;;5.32;1.98;;;8.20;99.90;;;;;;5079310;28;20279;-64
2024/01/01 12:36:31;;;;;;;4.88;2.20;;;8.20;99.90;;;;;;5080382;28;20197;-64
2024/01/01 12:38:58;;;;;;;5.68;2.30;;;8.20;99.90;;;;;;5079980;28;20708;-65
2024/01/01 12:41:24;;;;;;;5.30;2.40;;;8.20;99.90;;;;;;5080572;28;20216;-66
2024/01/01 12:43:51;;;;;;;6.07;2.63;;;8.20;99.90;;;;;;5083679;28;20223;-65
2024/01/01 12:46:18;;;;;;;4.28;2.30;;;8.20;99.90;;;;;;5081390;28;20207;-64
2024/01/01 12:48:45;;;;;;;4.90;2.08;;;8.20;99.90;;;;;;5082568;28;20201;-62
2024/01/01 12:51:14;;;;;;;3.55;1.95;;;8.20;99.90;;;;;;5085388;28;20231;-65
2024/01/01 12:53:41;;;;;;;3.25;2.10;;;8.20;99.90;;;;;;5084048;28;20691;-63
2024/01/01 12:56:08;;;;;;;5.18;2.78;;;8.20;99.90;;;;;;5084713;28;20584;-65
2024/01/01 12:58:35;;;;;;;6.07;2.30;;;8.20;99.90;;;;;;5085044;28;20205;-65
2024/01/01 13:01:02;;;;;;;8.95;2.40;;;8.20;99.90;;;;;;5084618;28;20205;-65
2024/01/01 13:03:28;;;;;;;8.10;3.38;;;8.20;99.90;;;;;;5081589;28;20205;-64
2024/01/01 13:05:55;;;;;;;5.65;2.75;;;8.10;99.90;;;;;;5083411;28;20201;-64